Time;durP1;ratioP1;P1;durP2;ratioP2;P2;SDS_P1;SDS_P2;PMS_P1;PMS_P2;Temp;Humidity;BMP_temperature;BMP_pressure;BME280_temperature;BME280_humidity;BME280_pressure;Samples;Min_cycle;Max_cycle;Signal;HPM_P1;HPM_P2
2021/12/21 00:00:00;;;;;;;16.60;7.07;;;-4.70;99.90;;;;;;5075366;28;20190;-81
2021/12/21 00:02:26;;;;;;;12.70;6.40;;;-4.80;99.90;;;;;;5095655;28;20198;-82
2021/12/21 00:04:52;;;;;;;15.27;7.03;;;-4.80;99.90;;;;;;5049567;28;20207;-82
2021/12/21 00:07:17;;;;;;;19.03;6.70;;;-4.60;99.90;;;;;;5100589;28;20179;-83
2021/12/21 00:09:43;;;;;;;15.47;7.67;;;-4.80;99.90;;;;;;5064056;28;20178;-83
2021/12/21 00:12:12;;;;;;;16.10;6.27;;;-4.80;99.90;;;;;;5076899;28;20193;-83
2021/12/21 00:14:58;;;;;;;18.50;7.87;;;-4.80;99.90;;;;;;5059711;28;20544;-83
2021/12/21 00:17:46;;;;;;;10.70;4.87;;;-4.80;99.90;;;;;;5048083;28;20185;-83
2021/12/21 00:25:21;;;;;;;8.07;5.07;;;-4.90;99.90;;;;;;5094132;28;20650;-82
2021/12/21 00:27:49;;;;;;;9.73;5.77;;;-3.00;99.90;;;;;;5093383;28;20236;-83
2021/12/21 00:30:15;;;;;;;11.63;5.50;;;-3.00;99.90;;;;;;5075513;28;20185;-83
2021/12/21 00:32:42;;;;;;;11.57;4.57;;;-3.80;99.90;;;;;;5075208;28;20295;-82
2021/12/21 00:35:08;;;;;;;13.70;5.97;;;-4.80;99.90;;;;;;5075537;28;20683;-82
2021/12/21 00:37:36;;;;;;;9.77;5.20;;;-4.60;99.90;;;;;;5058759;28;20633;-82
2021/12/21 00:40:03;;;;;;;11.77;5.37;;;-1.90;99.90;;;;;;5092824;28;20179;-82
2021/12/21 00:42:29;;;;;;;17.57;7.03;;;-4.70;99.90;;;;;;5058336;28;20210;-82
2021/12/21 00:44:55;;;;;;;14.30;5.63;;;-4.60;99.90;;;;;;5074686;28;20671;-83
2021/12/21 00:47:21;;;;;;;10.80;6.73;;;;;;;;;;5058339;28;20267;-82
2021/12/21 00:49:57;;;;;;;16.73;7.43;;;-4.70;99.90;;;;;;5074652;28;20188;-86
2021/12/21 00:52:22;;;;;;;13.40;4.97;;;-2.60;99.90;;;;;;5061482;28;20224;-82
2021/12/21 00:54:48;;;;;;;8.97;4.93;;;-4.80;99.90;;;;;;5057937;28;20187;-83
2021/12/21 00:57:14;;;;;;;14.03;5.97;;;-2.10;99.90;;;;;;5058180;28;20174;-82
2021/12/21 00:59:39;;;;;;;11.33;5.30;;;-3.80;99.90;;;;;;5093047;28;20178;-83
2021/12/21 01:02:05;;;;;;;12.47;6.13;;;-3.80;99.90;;;;;;5075223;28;20179;-82
2021/12/21 01:04:37;;;;;;;10.50;6.00;;;-4.70;99.90;;;;;;5045021;28;20190;-82
2021/12/21 01:12:09;;;;;;;6.83;4.63;;;-3.10;99.90;;;;;;5096579;28;20695;-83
2021/12/21 01:17:20;;;;;;;10.03;5.97;;;-4.70;99.90;;;;;;5079688;28;20901;-83
2021/12/21 01:19:48;;;;;;;13.67;6.10;;;-2.60;99.90;;;;;;5048023;28;20220;-83
2021/12/21 01:25:06;;;;;;;15.37;6.20;;;;;;;;;;5096550;28;20183;-82
2021/12/21 01:30:18;;;;;;;14.20;5.90;;;-4.70;99.90;;;;;;5078168;28;20188;-83
2021/12/21 01:35:19;;;;;;;12.70;5.20;;;-4.70;99.90;;;;;;5077971;28;20620;-82
2021/12/21 01:43:06;;;;;;;16.43;6.43;;;-4.70;99.90;;;;;;5096090;28;20680;-82
2021/12/21 01:51:02;;;;;;;7.47;4.80;;;;;;;;;;5095756;28;20591;-82
2021/12/21 01:53:27;;;;;;;9.80;5.23;;;-4.80;99.90;;;;;;5096069;28;20186;-82
2021/12/21 01:55:53;;;;;;;10.53;5.20;;;-3.40;99.90;;;;;;5060683;28;20181;-85
2021/12/21 01:58:19;;;;;;;8.53;4.67;;;-3.60;99.90;;;;;;5061132;28;20202;-81
2021/12/21 02:00:45;;;;;;;7.30;4.57;;;-2.70;99.90;;;;;;5077778;28;20259;-81
2021/12/21 02:03:11;;;;;;;5.47;3.53;;;-4.70;99.90;;;;;;5095413;28;20255;-82
2021/12/21 02:05:37;;;;;;;7.10;3.97;;;-3.00;99.90;;;;;;5078052;28;20705;-82
2021/12/21 02:08:04;;;;;;;8.43;3.97;;;-4.80;99.90;;;;;;5095333;28;20208;-81
2021/12/21 02:10:30;;;;;;;6.93;3.70;;;-4.80;99.90;;;;;;5095902;28;20657;-82
2021/12/21 02:12:56;;;;;;;7.30;4.13;;;-4.80;99.90;;;;;;5077139;28;20186;-83
2021/12/21 02:15:24;;;;;;;5.23;3.63;;;-2.40;99.90;;;;;;5076997;28;20270;-82
2021/12/21 02:23:07;;;;;;;6.10;3.63;;;-4.50;99.90;;;;;;5095118;28;20210;-81
2021/12/21 02:30:48;;;;;;;7.33;3.87;;;-4.90;99.90;;;;;;5079283;28;20679;-82
2021/12/21 02:33:15;;;;;;;7.80;4.13;;;-4.00;99.90;;;;;;5094714;28;20233;-83
2021/12/21 02:35:41;;;;;;;8.13;4.30;;;-4.20;99.90;;;;;;5077101;28;20181;-82
2021/12/21 02:38:07;;;;;;;5.80;3.27;;;-4.90;99.90;;;;;;5077045;28;20244;-83
2021/12/21 02:40:33;;;;;;;6.33;3.73;;;-4.90;99.90;;;;;;5080199;28;20179;-81
2021/12/21 02:42:59;;;;;;;7.60;4.03;;;-3.40;99.90;;;;;;5089726;28;20199;-85
2021/12/21 02:45:25;;;;;;;14.07;5.70;;;-4.90;99.90;;;;;;5086696;28;20184;-82
2021/12/21 02:47:51;;;;;;;8.80;4.60;;;-3.80;99.90;;;;;;5043604;28;20261;-82
2021/12/21 02:50:17;;;;;;;15.53;5.57;;;-5.50;99.90;;;;;;5076313;28;20343;-82
2021/12/21 02:52:42;;;;;;;16.97;5.63;;;-3.30;99.90;;;;;;5076408;28;20694;-82
2021/12/21 02:55:09;;;;;;;24.87;7.37;;;-4.90;99.90;;;;;;5094339;28;20182;-82
2021/12/21 02:57:34;;;;;;;22.43;7.07;;;-4.90;99.90;;;;;;5060187;28;20234;-82
2021/12/21 03:00:01;;;;;;;21.30;8.27;;;-3.40;99.90;;;;;;5093950;28;20599;-86
2021/12/21 03:02:29;;;;;;;25.43;7.23;;;-4.10;99.90;;;;;;5076567;28;20223;-83
2021/12/21 03:04:55;;;;;;;19.27;6.50;;;-3.40;99.90;;;;;;5076147;28;20193;-83
2021/12/21 03:09:58;;;;;;;16.77;6.17;;;-4.50;99.90;;;;;;5076503;28;20679;-82
2021/12/21 03:14:51;;;;;;;19.17;5.80;;;-2.60;99.90;;;;;;5094326;28;20218;-83
2021/12/21 03:17:18;;;;;;;18.67;7.47;;;-2.70;99.90;;;;;;5093836;28;20178;-83
2021/12/21 03:19:43;;;;;;;22.83;7.97;;;-4.80;99.90;;;;;;5075990;28;20573;-82
2021/12/21 03:22:10;;;;;;;18.50;6.23;;;-2.30;99.90;;;;;;5094125;28;20234;-83
2021/12/21 03:24:37;;;;;;;14.87;6.27;;;-2.80;99.90;;;;;;5094177;28;20178;-83
2021/12/21 03:27:04;;;;;;;16.73;6.10;;;-4.80;99.90;;;;;;5074795;28;20274;-86
2021/12/21 03:29:30;;;;;;;14.73;5.60;;;-4.70;99.90;;;;;;5075770;28;20552;-83
2021/12/21 03:31:56;;;;;;;12.13;6.53;;;-4.70;99.90;;;;;;5094308;28;20261;-83
2021/12/21 03:34:22;;;;;;;18.70;6.93;;;-4.70;99.90;;;;;;5042379;28;20216;-83
2021/12/21 03:36:48;;;;;;;17.53;7.10;;;-2.70;99.90;;;;;;5075699;28;20684;-83
2021/12/21 03:39:19;;;;;;;14.67;5.17;;;-4.50;99.90;;;;;;5075681;28;20179;-83
2021/12/21 03:41:48;;;;;;;14.30;4.90;;;-3.70;99.90;;;;;;5076588;28;20215;-82
2021/12/21 03:44:16;;;;;;;13.40;5.57;;;-4.60;99.90;;;;;;5093514;28;20201;-83
2021/12/21 03:46:49;;;;;;;12.77;5.73;;;-4.70;99.90;;;;;;5075583;28;20191;-83
2021/12/21 03:51:58;;;;;;;13.43;7.13;;;;;;;;;;5093759;28;20223;-83
2021/12/21 03:54:24;;;;;;;13.03;7.27;;;;;;;;;;5093410;28;20181;-82
2021/12/21 03:56:51;;;;;;;12.87;6.37;;;-4.60;99.90;;;;;;5075521;28;20258;-82
2021/12/21 03:59:18;;;;;;;15.33;6.00;;;-4.70;99.90;;;;;;5092906;28;20566;-82
2021/12/21 04:01:44;;;;;;;10.37;6.93;;;-4.70;99.90;;;;;;5075605;28;20223;-82
2021/12/21 04:04:10;;;;;;;16.13;7.27;;;-4.70;99.90;;;;;;5075203;28;20267;-83
2021/12/21 04:06:37;;;;;;;12.43;7.10;;;-1.70;99.90;;;;;;5075363;28;20216;-83
2021/12/21 04:09:05;;;;;;;10.13;6.13;;;-4.70;99.90;;;;;;5093573;28;20182;-83
2021/12/21 04:11:32;;;;;;;10.00;5.13;;;-4.70;99.90;;;;;;5058250;28;20224;-83
2021/12/21 04:13:58;;;;;;;6.77;4.70;;;-4.80;99.90;;;;;;5058456;28;20719;-83
2021/12/21 04:16:24;;;;;;;10.50;6.00;;;-2.40;99.90;;;;;;5058497;28;20191;-84
2021/12/21 04:18:49;;;;;;;9.97;5.67;;;-4.90;99.90;;;;;;5058585;28;20187;-83
2021/12/21 04:21:15;;;;;;;10.63;6.03;;;-4.90;99.90;;;;;;5075080;28;20257;-84
2021/12/21 04:23:42;;;;;;;10.13;5.33;;;-4.90;99.90;;;;;;5075155;28;20693;-84
2021/12/21 04:26:10;;;;;;;10.40;5.93;;;-3.00;99.90;;;;;;5093307;28;20177;-84
2021/12/21 04:28:35;;;;;;;10.70;5.40;;;-3.70;99.90;;;;;;5075232;28;20183;-84
2021/12/21 04:31:03;;;;;;;7.97;5.67;;;-2.20;99.90;;;;;;5093275;28;20235;-83
2021/12/21 04:33:29;;;;;;;7.73;5.30;;;-5.00;99.90;;;;;;5095855;28;20232;-84
2021/12/21 04:35:54;;;;;;;9.73;6.00;;;-5.00;99.90;;;;;;5058635;28;20186;-83
2021/12/21 04:38:27;;;;;;;9.17;5.40;;;-2.30;99.90;;;;;;5078110;28;20207;-83
2021/12/21 04:41:00;;;;;;;12.80;5.60;;;-3.00;99.90;;;;;;5079208;28;20585;-83
2021/12/21 04:43:25;;;;;;;11.30;5.00;;;-5.30;99.90;;;;;;5096915;28;20290;-83
2021/12/21 04:45:54;;;;;;;6.30;4.77;;;-5.20;99.90;;;;;;5062375;28;20642;-83
2021/12/21 04:48:20;;;;;;;7.97;5.00;;;-2.50;99.90;;;;;;5045860;28;20619;-83
2021/12/21 04:50:46;;;;;;;10.23;5.30;;;-5.20;99.90;;;;;;5079468;28;20176;-83
2021/12/21 04:53:11;;;;;;;9.93;5.33;;;-5.20;99.90;;;;;;5096734;28;20684;-87
2021/12/21 04:55:37;;;;;;;11.03;5.73;;;-5.30;99.90;;;;;;5079049;28;20177;-81
2021/12/21 04:58:04;;;;;;;10.03;6.23;;;-2.80;99.90;;;;;;5079287;28;20261;-83
2021/12/21 05:00:30;;;;;;;7.70;5.10;;;-5.30;99.90;;;;;;5061897;28;20185;-83
2021/12/21 05:02:56;;;;;;;9.80;5.50;;;-5.40;99.90;;;;;;5078730;28;20227;-84
2021/12/21 05:05:21;;;;;;;9.93;4.93;;;-3.10;99.90;;;;;;5061857;28;20546;-83
2021/12/21 05:07:52;;;;;;;11.57;5.87;;;-3.20;99.90;;;;;;5096890;28;20189;-82
2021/12/21 05:10:19;;;;;;;12.50;5.93;;;-3.90;99.90;;;;;;5078058;28;20193;-83
2021/12/21 05:12:45;;;;;;;7.30;4.33;;;-5.30;99.90;;;;;;5096769;28;20202;-83
2021/12/21 05:15:12;;;;;;;12.23;6.63;;;-3.50;99.90;;;;;;5096757;28;20186;-82
2021/12/21 05:17:37;;;;;;;10.47;5.13;;;-3.40;99.90;;;;;;5096424;28;20228;-82
2021/12/21 05:20:04;;;;;;;11.07;6.30;;;-4.30;99.90;;;;;;5096473;28;20594;-83
2021/12/21 05:22:30;;;;;;;14.07;6.57;;;-5.50;99.90;;;;;;5078110;28;20215;-83
2021/12/21 05:24:56;;;;;;;9.43;5.87;;;-5.60;99.90;;;;;;5071921;28;20193;-82
2021/12/21 05:27:23;;;;;;;14.77;6.00;;;-5.10;99.90;;;;;;5064389;28;20633;-82
2021/12/21 05:29:49;;;;;;;14.47;6.63;;;-5.70;99.90;;;;;;5050310;28;20189;-82
2021/12/21 05:32:14;;;;;;;15.23;7.37;;;-3.90;99.90;;;;;;5084398;28;20262;-82
2021/12/21 05:34:40;;;;;;;13.30;8.23;;;-2.70;99.90;;;;;;5083494;28;20276;-82
2021/12/21 05:37:07;;;;;;;11.03;6.40;;;-5.80;99.90;;;;;;5066939;28;20263;-82
2021/12/21 05:39:57;;;;;;;8.93;5.40;;;-3.60;99.90;;;;;;5061320;28;20266;-82
2021/12/21 05:42:24;;;;;;;10.27;6.23;;;-4.10;99.90;;;;;;5064188;28;20764;-81
2021/12/21 05:44:50;;;;;;;9.93;6.93;;;-5.90;99.90;;;;;;5095749;28;20189;-82
2021/12/21 05:47:16;;;;;;;8.53;5.60;;;-5.90;99.90;;;;;;5082550;28;20212;-82
2021/12/21 05:49:42;;;;;;;13.97;4.93;;;-5.90;99.90;;;;;;5079926;28;20630;-83
2021/12/21 05:52:08;;;;;;;12.80;5.80;;;-5.90;99.90;;;;;;5101555;28;20181;-81
2021/12/21 05:54:34;;;;;;;8.10;5.30;;;-6.00;99.90;;;;;;5087279;28;20224;-80
2021/12/21 05:57:03;;;;;;;10.27;5.70;;;-6.00;99.90;;;;;;5080662;28;20640;-82
2021/12/21 05:59:28;;;;;;;11.67;5.27;;;-6.00;99.90;;;;;;5077372;28;20228;-83
2021/12/21 06:01:54;;;;;;;7.33;5.17;;;-4.70;99.90;;;;;;5061425;28;20671;-82
2021/12/21 06:04:21;;;;;;;8.63;5.50;;;-6.00;99.90;;;;;;5075957;28;20257;-83
2021/12/21 06:06:47;;;;;;;8.83;5.50;;;-6.00;99.90;;;;;;5087206;28;20225;-83
2021/12/21 06:09:14;;;;;;;6.93;4.70;;;-6.00;99.90;;;;;;5060101;28;20222;-84
2021/12/21 06:11:51;;;;;;;8.93;5.50;;;-6.10;99.90;;;;;;5093320;28;20179;-82
2021/12/21 06:27:49;;;;;;;8.97;4.80;;;-6.20;99.90;;;;;;5088694;28;20208;-83
2021/12/21 06:30:15;;;;;;;11.13;5.27;;;-6.20;99.90;;;;;;5080477;28;20203;-82
2021/12/21 06:32:41;;;;;;;10.47;6.00;;;;;;;;;;5077663;28;20624;-80
2021/12/21 06:35:08;;;;;;;12.60;6.33;;;-6.20;99.90;;;;;;5078433;28;20190;-82
2021/12/21 06:37:34;;;;;;;8.27;5.80;;;-6.20;99.90;;;;;;5078485;28;20225;-83
2021/12/21 06:40:00;;;;;;;11.10;6.00;;;-4.20;99.90;;;;;;5079488;28;20197;-85
2021/12/21 06:42:28;;;;;;;9.27;5.00;;;-6.30;99.90;;;;;;5116271;28;20276;-81
2021/12/21 06:44:57;;;;;;;12.67;6.37;;;-6.30;99.90;;;;;;5098686;28;20197;-81
2021/12/21 06:52:53;;;;;;;12.00;6.40;;;-6.30;99.90;;;;;;5091338;28;20229;-81
2021/12/21 06:55:40;;;;;;;10.40;5.93;;;-3.70;99.90;;;;;;5065939;28;20261;-84
2021/12/21 06:58:08;;;;;;;9.20;6.47;;;-6.40;99.90;;;;;;5078224;28;20248;-84
2021/12/21 07:00:34;;;;;;;11.33;5.80;;;-6.40;99.90;;;;;;5098103;28;20217;-82
2021/12/21 07:03:00;;;;;;;8.53;6.10;;;-6.40;99.90;;;;;;5077359;28;20261;-82
2021/12/21 07:05:27;;;;;;;12.83;6.57;;;-6.40;99.90;;;;;;5089067;28;20195;-85
2021/12/21 07:07:53;;;;;;;9.67;6.23;;;-6.40;99.90;;;;;;5060401;28;20200;-83
2021/12/21 07:10:24;;;;;;;8.33;5.10;;;-6.40;99.90;;;;;;5074928;28;20206;-83
2021/12/21 07:20:37;;;;;;;9.60;5.47;;;-5.60;99.90;;;;;;5082105;28;20183;-84
2021/12/21 07:23:03;;;;;;;15.43;7.30;;;-4.30;99.90;;;;;;5061615;28;20206;-83
2021/12/21 07:25:31;;;;;;;8.10;4.83;;;-6.40;99.90;;;;;;5070668;28;20203;-84
2021/12/21 07:27:57;;;;;;;11.93;6.77;;;;;;;;;;5081315;28;20267;-83
2021/12/21 07:30:23;;;;;;;11.17;5.73;;;-6.40;99.90;;;;;;5083702;28;20566;-81
2021/12/21 07:32:51;;;;;;;11.40;5.87;;;-3.50;99.90;;;;;;5068775;28;20286;-80
2021/12/21 07:35:17;;;;;;;10.47;6.57;;;-4.90;99.90;;;;;;5056688;28;20187;-81
2021/12/21 07:37:42;;;;;;;12.47;7.03;;;-6.00;99.90;;;;;;5061213;28;20191;-84
2021/12/21 07:40:10;;;;;;;10.40;5.73;;;-5.00;99.90;;;;;;5057621;28;20214;-82
2021/12/21 07:42:35;;;;;;;10.40;6.47;;;-6.20;99.90;;;;;;5040171;28;20212;-83
2021/12/21 07:45:01;;;;;;;12.23;6.70;;;-3.80;99.90;;;;;;5072074;28;20197;-82
2021/12/21 07:47:27;;;;;;;8.50;5.67;;;-6.20;99.90;;;;;;5054480;28;20188;-82
2021/12/21 07:49:52;;;;;;;12.27;6.10;;;-6.30;99.90;;;;;;5052889;28;20234;-82
2021/12/21 07:52:19;;;;;;;10.77;6.27;;;-6.30;99.90;;;;;;5055963;28;20547;-82
2021/12/21 07:54:45;;;;;;;10.00;5.70;;;-3.70;99.90;;;;;;5061881;28;20186;-83
2021/12/21 07:57:11;;;;;;;15.60;6.93;;;;;;;;;;5072715;28;20242;-84
2021/12/21 07:59:40;;;;;;;14.00;5.73;;;-6.30;99.90;;;;;;5071517;28;20187;-84
2021/12/21 08:02:22;;;;;;;;;;;;;;;;;;;;;
2021/12/21 08:04:48;;;;;;;14.47;7.30;;;-6.20;99.90;;;;;;5071696;28;20183;-85
2021/12/21 08:07:21;;;;;;;10.63;6.27;;;-6.20;99.90;;;;;;5049857;28;20606;-84
2021/12/21 08:09:51;;;;;;;9.97;6.20;;;-3.50;99.90;;;;;;5049372;28;20285;-82
2021/12/21 08:12:18;;;;;;;14.20;7.40;;;-6.20;99.90;;;;;;5042348;28;20191;-84
2021/12/21 08:14:45;;;;;;;11.10;6.60;;;-6.20;99.90;;;;;;5078381;28;20181;-83
2021/12/21 08:17:11;;;;;;;10.90;6.00;;;-4.00;99.90;;;;;;5074768;28;20177;-85
2021/12/21 08:19:37;;;;;;;7.20;4.63;;;-6.20;99.90;;;;;;5032211;28;20211;-84
2021/12/21 08:22:03;;;;;;;13.43;6.60;;;-5.80;99.90;;;;;;5063540;28;20199;-86
2021/12/21 08:24:30;;;;;;;8.97;5.60;;;;;;;;;;5063474;28;20205;-84
2021/12/21 08:27:03;;;;;;;9.53;5.70;;;-6.00;99.90;;;;;;5058823;28;20194;-85
2021/12/21 08:29:29;;;;;;;9.40;4.90;;;;;;;;;;5041494;28;20177;-84
2021/12/21 08:31:56;;;;;;;10.97;6.27;;;-5.90;99.90;;;;;;5061058;28;20239;-85
2021/12/21 08:34:22;;;;;;;12.60;7.03;;;;;;;;;;5061654;28;20253;-84
2021/12/21 08:36:49;;;;;;;7.33;4.43;;;;;;;;;;5041416;28;20188;-83
2021/12/21 08:39:16;;;;;;;8.93;4.27;;;;;;;;;;5041382;28;20601;-84
2021/12/21 08:41:44;;;;;;;11.00;5.47;;;-5.80;99.90;;;;;;5042335;28;20276;-84
2021/12/21 08:44:11;;;;;;;8.30;5.03;;;-5.70;99.90;;;;;;5059451;28;20286;-85
2021/12/21 08:46:40;;;;;;;9.33;4.40;;;-5.60;99.90;;;;;;5058693;28;20179;-84
2021/12/21 08:49:06;;;;;;;10.50;6.03;;;;;;;;;;5065656;28;20187;-84
2021/12/21 08:51:32;;;;;;;19.87;12.13;;;-5.60;99.90;;;;;;5062841;28;20185;-83
2021/12/21 08:53:58;;;;;;;10.63;5.53;;;-2.20;99.90;;;;;;5058074;28;20190;-84
2021/12/21 08:56:24;;;;;;;15.40;7.73;;;-3.30;99.90;;;;;;5056074;28;20647;-83
2021/12/21 08:58:49;;;;;;;10.50;6.03;;;-3.10;99.90;;;;;;5057681;28;20180;-85
2021/12/21 09:01:16;;;;;;;6.20;4.53;;;-2.50;99.90;;;;;;5041961;28;20191;-83
2021/12/21 09:03:44;;;;;;;9.40;6.43;;;-5.40;99.90;;;;;;5042423;28;20801;-84
2021/12/21 09:06:09;;;;;;;8.77;5.17;;;-5.50;99.90;;;;;;5058404;28;20209;-84
2021/12/21 09:08:35;;;;;;;6.87;4.00;;;-5.30;99.90;;;;;;5067481;28;20164;-85
2021/12/21 09:11:04;;;;;;;5.90;4.00;;;;;;;;;;5081467;28;20212;-85
2021/12/21 09:13:33;;;;;;;7.77;4.60;;;-5.60;99.90;;;;;;5084447;28;20281;-83
2021/12/21 09:16:00;;;;;;;8.00;4.73;;;;;;;;;;5062654;28;20181;-85
2021/12/21 09:18:33;;;;;;;7.50;4.87;;;-5.40;99.90;;;;;;5087154;28;20185;-83
2021/12/21 09:20:59;;;;;;;7.73;4.37;;;;;;;;;;5092221;28;20187;-84
2021/12/21 09:23:27;;;;;;;7.20;3.33;;;-5.20;99.90;;;;;;5094100;28;20209;-83
2021/12/21 09:25:53;;;;;;;8.77;4.00;;;-2.50;99.90;;;;;;5075966;28;20184;-82
2021/12/21 09:28:21;;;;;;;6.73;4.37;;;-5.00;99.90;;;;;;5044832;28;20186;-82
2021/12/21 09:30:47;;;;;;;9.47;4.97;;;-5.00;99.90;;;;;;5067371;28;20195;-82
2021/12/21 09:33:13;;;;;;;7.17;4.87;;;-3.30;99.90;;;;;;5054504;28;20696;-81
2021/12/21 09:35:39;;;;;;;8.83;4.47;;;-1.90;99.90;;;;;;5076418;28;20179;-83
2021/12/21 09:38:06;;;;;;;5.87;4.23;;;-4.90;99.90;;;;;;5043811;28;20183;-81
2021/12/21 09:40:39;;;;;;;7.53;3.80;;;-4.80;99.90;;;;;;5059791;28;20270;-81
2021/12/21 09:43:08;;;;;;;7.90;5.10;;;-4.80;99.90;;;;;;5057746;28;20228;-82
2021/12/21 09:45:34;;;;;;;12.13;4.60;;;-4.80;99.90;;;;;;5066497;28;20270;-82
2021/12/21 09:48:00;;;;;;;7.60;4.57;;;-4.70;99.90;;;;;;5061585;28;20199;-81
2021/12/21 09:50:26;;;;;;;5.50;3.67;;;-4.60;99.90;;;;;;5042889;28;20191;-83
2021/12/21 09:52:55;;;;;;;9.03;5.27;;;-4.70;99.90;;;;;;5071173;28;20195;-83
2021/12/21 09:55:21;;;;;;;13.23;4.67;;;;;;;;;;5075625;28;20179;-82
2021/12/21 09:57:51;;;;;;;4.70;3.37;;;-4.70;99.90;;;;;;5075569;28;20179;-83
2021/12/21 10:00:22;;;;;;;8.07;4.70;;;-4.60;99.90;;;;;;5077299;28;20191;-83
2021/12/21 10:02:48;;;;;;;13.87;6.33;;;-4.60;99.90;;;;;;5076577;28;20671;-83
2021/12/21 10:05:19;;;;;;;7.70;3.20;;;-4.50;99.90;;;;;;5077359;28;20220;-84
2021/12/21 10:07:59;;;;;;;9.40;4.30;;;-4.40;99.90;;;;;;5077594;28;20167;-83
2021/12/21 10:10:25;;;;;;;9.23;5.00;;;-1.70;99.90;;;;;;5078650;28;20183;-82
2021/12/21 10:12:51;;;;;;;10.00;4.20;;;-2.20;99.90;;;;;;5076401;28;20186;-82
2021/12/21 10:15:23;;;;;;;7.20;4.47;;;-4.10;99.90;;;;;;5076112;28;20187;-81
2021/12/21 10:18:00;;;;;;;10.53;4.70;;;-4.10;99.90;;;;;;5074713;28;20248;-84
2021/12/21 10:20:35;;;;;;;5.97;4.10;;;-4.00;99.90;;;;;;5076376;28;20179;-81
2021/12/21 10:23:14;;;;;;;6.53;3.10;;;-4.10;97.40;;;;;;5061947;28;20260;-84
2021/12/21 10:26:10;;;;;;;8.40;4.37;;;-4.10;97.60;;;;;;5057864;28;20211;-82
2021/12/21 10:28:49;;;;;;;7.23;3.97;;;-4.00;98.20;;;;;;5055286;28;20229;-83
2021/12/21 10:31:36;;;;;;;5.27;3.40;;;-1.60;99.40;;;;;;5067426;28;20195;-81
2021/12/21 10:34:03;;;;;;;9.87;4.57;;;-3.90;97.10;;;;;;5063355;28;20746;-82
2021/12/21 10:36:30;;;;;;;8.83;5.20;;;-3.90;99.90;;;;;;5038825;28;20594;-82
2021/12/21 10:38:58;;;;;;;10.67;4.53;;;-3.40;98.30;;;;;;5056891;28;20176;-82
2021/12/21 10:41:33;;;;;;;6.43;4.10;;;-4.10;98.20;;;;;;5056812;28;20177;-82
2021/12/21 10:44:14;;;;;;;8.43;4.10;;;-4.10;98.10;;;;;;5062030;28;20199;-83
2021/12/21 10:46:43;;;;;;;13.23;4.07;;;-4.10;97.00;;;;;;5056207;28;20214;-82
2021/12/21 10:49:16;;;;;;;7.37;3.37;;;-4.10;94.90;;;;;;5054662;28;20172;-83
2021/12/21 10:52:05;;;;;;;7.83;5.37;;;-4.10;96.00;;;;;;5056351;28;20203;-83
2021/12/21 10:54:41;;;;;;;6.57;4.27;;;-4.10;96.20;;;;;;5054507;28;20266;-80
2021/12/21 10:57:15;;;;;;;7.00;3.90;;;-3.10;96.90;;;;;;5065488;28;20181;-83
2021/12/21 10:59:46;;;;;;;8.13;4.27;;;-4.10;95.80;;;;;;5075724;28;20196;-83
2021/12/21 11:02:15;;;;;;;7.03;4.70;;;-4.20;96.00;;;;;;5074245;28;20179;-82
2021/12/21 11:04:46;;;;;;;8.03;2.93;;;-2.10;97.40;;;;;;5074585;28;20194;-83
2021/12/21 11:07:30;;;;;;;11.23;5.13;;;-2.80;94.40;;;;;;5074611;28;20535;-82
2021/12/21 11:10:12;;;;;;;6.33;3.30;;;-3.90;94.80;;;;;;5075133;28;20175;-82
2021/12/21 11:12:46;;;;;;;3.67;2.67;;;-3.50;93.90;;;;;;5076180;28;20179;-83
2021/12/21 11:15:14;;;;;;;10.10;4.27;;;-1.00;94.30;;;;;;5076691;28;20628;-83
2021/12/21 11:17:41;;;;;;;7.43;3.70;;;-3.70;93.70;;;;;;5076829;28;20209;-82
2021/12/21 11:20:09;;;;;;;10.87;4.37;;;-3.90;94.80;;;;;;5079854;28;20182;-83
2021/12/21 11:22:37;;;;;;;11.23;5.23;;;-3.80;95.30;;;;;;5045250;28;20181;-83
2021/12/21 11:25:05;;;;;;;14.07;4.93;;;-3.70;96.40;;;;;;5078543;28;20179;-83
2021/12/21 11:27:34;;;;;;;7.83;4.37;;;-3.80;96.20;;;;;;5078610;28;20266;-82
2021/12/21 11:30:04;;;;;;;6.97;4.13;;;-3.70;94.60;;;;;;5076404;28;20206;-84
2021/12/21 11:32:32;;;;;;;7.30;3.83;;;-2.50;94.70;;;;;;5059859;28;20229;-83
2021/12/21 11:37:20;;;;;;;14.50;4.93;;;;;;;;;;5078137;28;20252;-84
2021/12/21 11:37:56;;;;;;;5.53;3.43;;;-3.50;92.10;;;;;;5076652;28;20644;-82
2021/12/21 11:40:25;;;;;;;6.10;3.93;;;-3.40;92.20;;;;;;5061278;28;20247;-82
2021/12/21 11:42:51;;;;;;;3.10;2.43;;;-0.40;93.70;;;;;;5063145;28;20262;-81
2021/12/21 11:45:43;;;;;;;7.73;4.03;;;-1.00;92.60;;;;;;5055452;28;20679;-81
2021/12/21 11:48:17;;;;;;;10.20;3.17;;;-0.50;93.40;;;;;;5049167;28;20187;-86
2021/12/21 11:50:46;;;;;;;4.63;2.90;;;-1.90;88.50;;;;;;5069133;28;20654;-84
2021/12/21 11:53:14;;;;;;;6.33;3.60;;;-1.50;81.80;;;;;;5060658;28;20180;-84
2021/12/21 11:55:43;;;;;;;6.70;3.67;;;-1.10;77.40;;;;;;5056184;28;20169;-84
2021/12/21 11:58:25;;;;;;;12.87;3.83;;;-0.10;72.50;;;;;;5056696;28;20183;-83
2021/12/21 12:00:51;;;;;;;8.53;3.87;;;-0.60;69.80;;;;;;5070457;28;20328;-83
2021/12/21 12:03:20;;;;;;;7.33;4.50;;;1.10;69.80;;;;;;5073760;28;20723;-83
2021/12/21 12:05:58;;;;;;;5.90;3.27;;;0.10;67.20;;;;;;5067160;28;20184;-84
2021/12/21 12:08:43;;;;;;;9.03;4.67;;;-1.10;66.90;;;;;;5068880;28;20170;-84
2021/12/21 12:11:09;;;;;;;7.93;3.53;;;;;;;;;;5074278;28;20147;-87
2021/12/21 12:13:36;;;;;;;7.30;3.93;;;-2.20;70.30;;;;;;5082867;28;20188;-88
2021/12/21 12:16:12;;;;;;;7.90;3.87;;;-0.70;73.70;;;;;;5076038;28;20190;-83
2021/12/21 12:18:42;;;;;;;5.23;3.40;;;-2.70;75.40;;;;;;5070664;28;20203;-83
2021/12/21 12:21:34;;;;;;;12.27;5.43;;;-0.70;83.40;;;;;;5064592;28;20656;-84
2021/12/21 12:24:01;;;;;;;9.80;5.60;;;-1.50;84.60;;;;;;5065709;28;20206;-83
2021/12/21 12:26:38;;;;;;;6.23;3.97;;;-0.10;85.40;;;;;;5062447;28;20188;-83
2021/12/21 12:29:14;;;;;;;13.87;6.10;;;-1.40;74.80;;;;;;5063062;28;20176;-84
2021/12/21 12:31:42;;;;;;;12.97;5.93;;;-0.90;72.30;;;;;;5060298;28;20175;-85
2021/12/21 12:34:08;;;;;;;12.67;7.87;;;-1.00;70.90;;;;;;5059148;28;20180;-83
2021/12/21 12:36:41;;;;;;;49.43;29.17;;;0.00;69.40;;;;;;5092550;28;20180;-81
2021/12/21 12:39:08;;;;;;;22.23;11.03;;;-0.70;67.20;;;;;;5067029;28;20202;-83
2021/12/21 12:41:47;;;;;;;12.87;6.53;;;1.20;69.80;;;;;;5059347;28;20183;-82
2021/12/21 12:44:23;;;;;;;16.57;6.60;;;-1.10;70.20;;;;;;5069849;28;20688;-82
2021/12/21 12:46:59;;;;;;;12.10;6.27;;;-0.90;69.90;;;;;;5082881;28;20201;-82
2021/12/21 12:49:30;;;;;;;10.20;4.57;;;0.10;71.90;;;;;;5070123;28;20277;-84
2021/12/21 12:52:31;;;;;;;6.10;3.63;;;-1.20;71.20;;;;;;5086713;28;20175;-83
2021/12/21 12:55:13;;;;;;;10.17;3.90;;;-2.10;73.60;;;;;;5088636;28;20218;-83
2021/12/21 12:57:49;;;;;;;9.37;4.40;;;-2.60;77.60;;;;;;5075033;28;20172;-85
2021/12/21 13:00:45;;;;;;;7.63;3.57;;;-0.40;82.40;;;;;;5061678;28;20217;-82
2021/12/21 13:03:12;;;;;;;9.00;3.63;;;-2.80;83.00;;;;;;5067291;28;20217;-82
2021/12/21 13:05:52;;;;;;;9.07;4.13;;;-3.40;88.20;;;;;;5076153;28;20571;-84
2021/12/21 13:08:22;;;;;;;12.03;4.53;;;-3.40;88.80;;;;;;5078669;28;20199;-82
2021/12/21 13:10:56;;;;;;;6.37;3.93;;;-2.20;92.70;;;;;;5096890;28;20216;-82
2021/12/21 13:13:32;;;;;;;9.23;3.77;;;-3.20;93.60;;;;;;5081784;28;20176;-82
2021/12/21 13:16:02;;;;;;;10.93;4.73;;;-1.30;94.80;;;;;;5070715;28;20178;-82
2021/12/21 13:18:28;;;;;;;10.27;4.00;;;-1.80;94.60;;;;;;5065089;28;20269;-81
2021/12/21 13:20:54;;;;;;;6.47;3.93;;;-3.00;93.20;;;;;;5064137;28;20214;-81
2021/12/21 13:23:22;;;;;;;7.40;4.03;;;-3.80;92.30;;;;;;5081091;28;20206;-82
2021/12/21 13:26:07;;;;;;;11.33;4.37;;;-2.80;93.10;;;;;;5082090;28;20243;-81
2021/12/21 13:28:47;;;;;;;4.53;2.93;;;-3.80;93.00;;;;;;5076114;28;20206;-81
2021/12/21 13:31:19;;;;;;;10.87;4.27;;;-3.90;91.60;;;;;;5077169;28;20182;-82
2021/12/21 13:33:53;;;;;;;6.33;3.40;;;-1.40;92.00;;;;;;5087989;28;20729;-81
2021/12/21 13:36:29;;;;;;;6.93;3.63;;;-4.00;89.60;;;;;;5080715;28;20174;-81
2021/12/21 13:38:56;;;;;;;6.00;3.10;;;-3.80;90.10;;;;;;5081692;28;20193;-81
2021/12/21 13:41:22;;;;;;;4.23;2.90;;;-4.10;91.00;;;;;;5063433;28;20186;-81
2021/12/21 13:43:55;;;;;;;10.83;3.63;;;-4.00;91.50;;;;;;5046783;28;20297;-81
2021/12/21 13:46:21;;;;;;;16.40;4.13;;;-2.40;92.90;;;;;;5089098;28;20209;-80
2021/12/21 13:48:56;;;;;;;12.00;4.07;;;-4.20;95.60;;;;;;5108869;28;20179;-79
2021/12/21 13:51:23;;;;;;;8.07;4.47;;;-4.00;93.40;;;;;;5102281;28;20203;-81
2021/12/21 13:53:52;;;;;;;9.13;3.50;;;-4.00;93.60;;;;;;5081493;28;20179;-81
2021/12/21 13:56:21;;;;;;;6.57;3.93;;;-1.70;95.20;;;;;;5099926;28;20261;-81
2021/12/21 13:58:48;;;;;;;5.83;3.83;;;-4.10;94.50;;;;;;5097591;28;20202;-83
2021/12/21 14:01:28;;;;;;;6.23;4.30;;;-4.10;94.80;;;;;;5079094;28;20230;-82
2021/12/21 14:04:03;;;;;;;4.83;3.30;;;-4.20;95.50;;;;;;5097141;28;20198;-83
2021/12/21 14:06:29;;;;;;;6.97;4.77;;;-1.90;96.60;;;;;;5078814;28;20218;-82
2021/12/21 14:08:58;;;;;;;10.10;5.13;;;-4.20;95.60;;;;;;5078979;28;20202;-81
2021/12/21 14:11:30;;;;;;;7.03;4.00;;;-4.30;95.80;;;;;;5078126;28;20178;-82
2021/12/21 14:13:57;;;;;;;12.40;4.60;;;-4.30;96.70;;;;;;5078770;28;20223;-82
2021/12/21 14:16:25;;;;;;;6.97;4.07;;;-4.30;96.10;;;;;;5057087;28;20175;-82